sensor_id;sensor_type;location;lat;lon;timestamp;pressure;altitude;pressure_sealevel;temperature;humidity
6829;BME280;17930;48.592;8.868;2023-04-07T00:00:22;96767.16;;;5.96;100.00
6829;BME280;17930;48.592;8.868;2023-04-07T00:02:49;96766.91;;;5.97;100.00
6829;BME280;17930;48.592;8.868;2023-04-07T00:05:16;96760.97;;;5.97;100.00
6829;BME280;17930;48.592;8.868;2023-04-07T00:07:42;96764.47;;;5.86;100.00
6829;BME280;17930;48.592;8.868;2023-04-07T00:10:10;96772.72;;;5.83;100.00
6829;BME280;17930;48.592;8.868;2023-04-07T00:12:37;96756.81;;;5.96;100.00
6829;BME280;17930;48.592;8.868;2023-04-07T00:15:04;96757.31;;;5.93;100.00
6829;BME280;17930;48.592;8.868;2023-04-07T00:17:31;96770.06;;;5.78;100.00
6829;BME280;17930;48.592;8.868;2023-04-07T00:19:58;96754.56;;;5.78;100.00
6829;BME280;17930;48.592;8.868;2023-04-07T00:22:24;96764.19;;;5.66;100.00
6829;BME280;17930;48.592;8.868;2023-04-07T00:24:51;96755.03;;;5.75;100.00
6829;BME280;17930;48.592;8.868;2023-04-07T00:27:19;96762.69;;;5.70;100.00
6829;BME280;17930;48.592;8.868;2023-04-07T00:29:47;96762.28;;;5.57;100.00
6829;BME280;17930;48.592;8.868;2023-04-07T00:32:14;96752.34;;;5.70;100.00
6829;BME280;17930;48.592;8.868;2023-04-07T00:34:40;96745.03;;;5.83;100.00
6829;BME280;17930;48.592;8.868;2023-04-07T00:37:07;96738.47;;;5.76;100.00
6829;BME280;17930;48.592;8.868;2023-04-07T00:39:33;96741.47;;;5.68;100.00
6829;BME280;17930;48.592;8.868;2023-04-07T00:42:02;96733.22;;;5.71;100.00
6829;BME280;17930;48.592;8.868;2023-04-07T00:44:30;96728.53;;;5.68;100.00
6829;BME280;17930;48.592;8.868;2023-04-07T00:46:57;96727.56;;;5.74;100.00
6829;BME280;17930;48.592;8.868;2023-04-07T00:49:24;96715.78;;;5.83;100.00
6829;BME280;17930;48.592;8.868;2023-04-07T00:51:53;96716.69;;;5.93;100.00
6829;BME280;17930;48.592;8.868;2023-04-07T00:54:20;96715.13;;;5.92;100.00
6829;BME280;17930;48.592;8.868;2023-04-07T00:56:47;96707.00;;;5.84;100.00
6829;BME280;17930;48.592;8.868;2023-04-07T00:59:14;96704.78;;;5.71;100.00
6829;BME280;17930;48.592;8.868;2023-04-07T01:01:44;96697.50;;;5.68;100.00
6829;BME280;17930;48.592;8.868;2023-04-07T01:04:19;96694.91;;;5.68;100.00
6829;BME280;17930;48.592;8.868;2023-04-07T01:06:50;96693.06;;;5.85;100.00
6829;BME280;17930;48.592;8.868;2023-04-07T01:09:20;96693.00;;;6.06;100.00
6829;BME280;17930;48.592;8.868;2023-04-07T01:11:53;96685.34;;;5.90;100.00
6829;BME280;17930;48.592;8.868;2023-04-07T01:14:29;96684.25;;;5.86;100.00
6829;BME280;17930;48.592;8.868;2023-04-07T01:17:00;96688.34;;;5.82;100.00
6829;BME280;17930;48.592;8.868;2023-04-07T01:19:33;96685.81;;;5.87;100.00
6829;BME280;17930;48.592;8.868;2023-04-07T01:22:02;96679.06;;;5.86;100.00
6829;BME280;17930;48.592;8.868;2023-04-07T01:24:52;96672.63;;;5.88;100.00
6829;BME280;17930;48.592;8.868;2023-04-07T01:27:33;96673.41;;;5.89;100.00
6829;BME280;17930;48.592;8.868;2023-04-07T01:30:06;96677.53;;;5.85;100.00
6829;BME280;17930;48.592;8.868;2023-04-07T01:32:36;96676.13;;;5.77;100.00
6829;BME280;17930;48.592;8.868;2023-04-07T01:35:06;96666.59;;;5.78;100.00
6829;BME280;17930;48.592;8.868;2023-04-07T01:37:36;96669.28;;;5.88;100.00
6829;BME280;17930;48.592;8.868;2023-04-07T01:40:06;96670.22;;;5.82;100.00
6829;BME280;17930;48.592;8.868;2023-04-07T01:42:34;96671.75;;;5.78;100.00
6829;BME280;17930;48.592;8.868;2023-04-07T01:45:05;96670.78;;;5.84;100.00
6829;BME280;17930;48.592;8.868;2023-04-07T01:47:33;96658.63;;;5.84;100.00
6829;BME280;17930;48.592;8.868;2023-04-07T01:50:02;96650.69;;;5.91;100.00
6829;BME280;17930;48.592;8.868;2023-04-07T01:52:30;96650.28;;;6.04;100.00
6829;BME280;17930;48.592;8.868;2023-04-07T01:54:57;96643.53;;;6.03;100.00
6829;BME280;17930;48.592;8.868;2023-04-07T01:57:25;96654.19;;;6.06;100.00
6829;BME280;17930;48.592;8.868;2023-04-07T01:59:52;96654.91;;;6.02;100.00
6829;BME280;17930;48.592;8.868;2023-04-07T02:02:20;96651.38;;;6.12;100.00
6829;BME280;17930;48.592;8.868;2023-04-07T02:04:52;96655.94;;;6.01;100.00
6829;BME280;17930;48.592;8.868;2023-04-07T02:10:06;96650.38;;;6.13;100.00
6829;BME280;17930;48.592;8.868;2023-04-07T02:12:35;96650.44;;;6.23;100.00
6829;BME280;17930;48.592;8.868;2023-04-07T02:15:04;96646.63;;;6.31;100.00
6829;BME280;17930;48.592;8.868;2023-04-07T02:17:38;96645.75;;;6.20;100.00
6829;BME280;17930;48.592;8.868;2023-04-07T02:20:07;96644.97;;;6.20;100.00
6829;BME280;17930;48.592;8.868;2023-04-07T02:22:35;96640.13;;;6.28;100.00
6829;BME280;17930;48.592;8.868;2023-04-07T02:25:20;96638.44;;;6.12;100.00
6829;BME280;17930;48.592;8.868;2023-04-07T02:27:47;96636.78;;;6.02;100.00
6829;BME280;17930;48.592;8.868;2023-04-07T02:30:13;96639.00;;;6.14;100.00
6829;BME280;17930;48.592;8.868;2023-04-07T02:32:42;96632.66;;;6.01;100.00
6829;BME280;17930;48.592;8.868;2023-04-07T02:35:09;96631.38;;;6.03;100.00
6829;BME280;17930;48.592;8.868;2023-04-07T02:37:35;96625.47;;;6.08;100.00
6829;BME280;17930;48.592;8.868;2023-04-07T02:40:02;96621.75;;;5.99;100.00
6829;BME280;17930;48.592;8.868;2023-04-07T02:42:29;96618.06;;;5.90;100.00
6829;BME280;17930;48.592;8.868;2023-04-07T02:44:55;96620.97;;;5.98;100.00
6829;BME280;17930;48.592;8.868;2023-04-07T02:47:22;96625.28;;;5.88;100.00
6829;BME280;17930;48.592;8.868;2023-04-07T02:49:50;96626.84;;;5.89;100.00
6829;BME280;17930;48.592;8.868;2023-04-07T02:52:17;96624.72;;;5.81;100.00
6829;BME280;17930;48.592;8.868;2023-04-07T02:54:43;96625.19;;;5.78;100.00
6829;BME280;17930;48.592;8.868;2023-04-07T02:57:10;96629.03;;;5.75;100.00
6829;BME280;17930;48.592;8.868;2023-04-07T02:59:38;96630.66;;;5.81;100.00
6829;BME280;17930;48.592;8.868;2023-04-07T03:02:04;96619.03;;;5.84;100.00
6829;BME280;17930;48.592;8.868;2023-04-07T03:04:31;96615.06;;;6.03;100.00
6829;BME280;17930;48.592;8.868;2023-04-07T03:06:59;96623.22;;;6.16;100.00
6829;BME280;17930;48.592;8.868;2023-04-07T03:09:25;96612.97;;;6.00;100.00
6829;BME280;17930;48.592;8.868;2023-04-07T03:11:52;96609.53;;;5.89;100.00
6829;BME280;17930;48.592;8.868;2023-04-07T03:14:20;96609.66;;;5.78;100.00
6829;BME280;17930;48.592;8.868;2023-04-07T03:16:46;96605.97;;;5.74;100.00
6829;BME280;17930;48.592;8.868;2023-04-07T03:19:13;96596.19;;;5.76;100.00
6829;BME280;17930;48.592;8.868;2023-04-07T03:21:40;96598.91;;;5.91;100.00
6829;BME280;17930;48.592;8.868;2023-04-07T03:24:08;96592.25;;;5.73;100.00
6829;BME280;17930;48.592;8.868;2023-04-07T03:26:35;96596.66;;;5.73;100.00
6829;BME280;17930;48.592;8.868;2023-04-07T03:29:01;96590.88;;;5.66;100.00
6829;BME280;17930;48.592;8.868;2023-04-07T03:31:28;96593.28;;;5.99;100.00
6829;BME280;17930;48.592;8.868;2023-04-07T03:33:55;96597.16;;;5.96;100.00
6829;BME280;17930;48.592;8.868;2023-04-07T03:36:22;96589.06;;;5.88;100.00
6829;BME280;17930;48.592;8.868;2023-04-07T03:38:48;96592.84;;;5.80;100.00
6829;BME280;17930;48.592;8.868;2023-04-07T03:41:16;96591.09;;;5.86;100.00
6829;BME280;17930;48.592;8.868;2023-04-07T03:43:43;96583.50;;;5.74;100.00
6829;BME280;17930;48.592;8.868;2023-04-07T03:46:10;96583.88;;;5.88;100.00
6829;BME280;17930;48.592;8.868;2023-04-07T03:48:36;96574.91;;;6.00;100.00
6829;BME280;17930;48.592;8.868;2023-04-07T03:51:03;96579.41;;;6.10;100.00
6829;BME280;17930;48.592;8.868;2023-04-07T03:53:30;96576.41;;;5.91;100.00
6829;BME280;17930;48.592;8.868;2023-04-07T03:55:56;96572.47;;;5.84;100.00
6829;BME280;17930;48.592;8.868;2023-04-07T03:58:24;96573.34;;;5.68;100.00
6829;BME280;17930;48.592;8.868;2023-04-07T04:00:51;96576.84;;;5.57;100.00
6829;BME280;17930;48.592;8.868;2023-04-07T04:03:18;96572.16;;;5.54;100.00
6829;BME280;17930;48.592;8.868;2023-04-07T04:05:44;96573.34;;;5.68;100.00
6829;BME280;17930;48.592;8.868;2023-04-07T04:08:11;96570.19;;;5.66;100.00
6829;BME280;17930;48.592;8.868;2023-04-07T04:10:37;96575.28;;;5.56;100.00
6829;BME280;17930;48.592;8.868;2023-04-07T04:13:04;96575.00;;;5.53;100.00
6829;BME280;17930;48.592;8.868;2023-04-07T04:15:33;96569.50;;;5.49;100.00
6829;BME280;17930;48.592;8.868;2023-04-07T04:18:00;96565.63;;;5.47;100.00
6829;BME280;17930;48.592;8.868;2023-04-07T04:20:27;96569.75;;;5.48;100.00
6829;BME280;17930;48.592;8.868;2023-04-07T04:22:53;96566.16;;;5.49;100.00
6829;BME280;17930;48.592;8.868;2023-04-07T04:25:20;96564.81;;;5.46;100.00
6829;BME280;17930;48.592;8.868;2023-04-07T04:27:47;96567.38;;;5.41;100.00
6829;BME280;17930;48.592;8.868;2023-04-07T04:30:13;96566.81;;;5.39;100.00
6829;BME280;17930;48.592;8.868;2023-04-07T04:32:41;96566.28;;;5.37;100.00
6829;BME280;17930;48.592;8.868;2023-04-07T04:35:09;96568.31;;;5.35;100.00
6829;BME280;17930;48.592;8.868;2023-04-07T04:37:35;96562.09;;;5.31;100.00
6829;BME280;17930;48.592;8.868;2023-04-07T04:40:02;96557.13;;;5.51;100.00
6829;BME280;17930;48.592;8.868;2023-04-07T04:42:32;96556.13;;;5.31;100.00
6829;BME280;17930;48.592;8.868;2023-04-07T04:44:59;96555.75;;;5.44;100.00
6829;BME280;17930;48.592;8.868;2023-04-07T04:47:25;96556.69;;;5.33;100.00
6829;BME280;17930;48.592;8.868;2023-04-07T04:49:53;96568.22;;;5.25;100.00
6829;BME280;17930;48.592;8.868;2023-04-07T04:52:20;96567.66;;;5.18;100.00
6829;BME280;17930;48.592;8.868;2023-04-07T04:54:47;96562.38;;;5.35;100.00
6829;BME280;17930;48.592;8.868;2023-04-07T04:57:13;96563.13;;;5.30;100.00
6829;BME280;17930;48.592;8.868;2023-04-07T04:59:40;96570.75;;;5.20;100.00
6829;BME280;17930;48.592;8.868;2023-04-07T05:02:07;96567.81;;;5.12;100.00
6829;BME280;17930;48.592;8.868;2023-04-07T05:04:33;96561.88;;;5.11;100.00
6829;BME280;17930;48.592;8.868;2023-04-07T05:07:03;96566.50;;;5.09;100.00
6829;BME280;17930;48.592;8.868;2023-04-07T05:09:30;96566.75;;;5.08;100.00
6829;BME280;17930;48.592;8.868;2023-04-07T05:11:56;96557.72;;;5.10;100.00
6829;BME280;17930;48.592;8.868;2023-04-07T05:14:23;96568.34;;;5.14;100.00
6829;BME280;17930;48.592;8.868;2023-04-07T05:16:50;96568.91;;;5.16;100.00
6829;BME280;17930;48.592;8.868;2023-04-07T05:19:17;96574.38;;;5.19;100.00
6829;BME280;17930;48.592;8.868;2023-04-07T05:21:43;96573.03;;;5.38;100.00
6829;BME280;17930;48.592;8.868;2023-04-07T05:24:11;96567.38;;;5.41;100.00
6829;BME280;17930;48.592;8.868;2023-04-07T05:26:38;96570.22;;;5.40;100.00
6829;BME280;17930;48.592;8.868;2023-04-07T05:29:04;96570.22;;;5.40;100.00
6829;BME280;17930;48.592;8.868;2023-04-07T05:31:31;96569.97;;;5.41;100.00
6829;BME280;17930;48.592;8.868;2023-04-07T05:34:00;96570.25;;;5.45;100.00
6829;BME280;17930;48.592;8.868;2023-04-07T05:36:26;96568.78;;;5.54;100.00
6829;BME280;17930;48.592;8.868;2023-04-07T05:38:53;96567.97;;;5.48;100.00
6829;BME280;17930;48.592;8.868;2023-04-07T05:41:21;96571.88;;;5.77;100.00
6829;BME280;17930;48.592;8.868;2023-04-07T05:43:47;96565.13;;;5.76;100.00
6829;BME280;17930;48.592;8.868;2023-04-07T05:46:14;96567.34;;;5.67;100.00
6829;BME280;17930;48.592;8.868;2023-04-07T05:48:41;96567.72;;;5.76;100.00
6829;BME280;17930;48.592;8.868;2023-04-07T05:51:07;96568.13;;;5.94;100.00
6829;BME280;17930;48.592;8.868;2023-04-07T05:53:34;96570.63;;;6.11;100.00
6829;BME280;17930;48.592;8.868;2023-04-07T05:56:00;96565.03;;;6.28;100.00
6829;BME280;17930;48.592;8.868;2023-04-07T05:58:28;96559.34;;;6.31;100.00
6829;BME280;17930;48.592;8.868;2023-04-07T06:00:55;96567.63;;;6.28;100.00
6829;BME280;17930;48.592;8.868;2023-04-07T06:03:22;96576.94;;;6.29;100.00
6829;BME280;17930;48.592;8.868;2023-04-07T06:05:49;96569.63;;;6.58;100.00
6829;BME280;17930;48.592;8.868;2023-04-07T06:08:15;96571.75;;;6.65;100.00
6829;BME280;17930;48.592;8.868;2023-04-07T06:10:42;96565.91;;;6.90;100.00
6829;BME280;17930;48.592;8.868;2023-04-07T06:13:08;96557.19;;;7.15;100.00
6829;BME280;17930;48.592;8.868;2023-04-07T06:15:36;96556.19;;;7.31;100.00
6829;BME280;17930;48.592;8.868;2023-04-07T06:18:03;96554.19;;;7.63;100.00
6829;BME280;17930;48.592;8.868;2023-04-07T06:20:29;96546.16;;;8.44;100.00
6829;BME280;17930;48.592;8.868;2023-04-07T06:22:56;96534.56;;;8.99;100.00
6829;BME280;17930;48.592;8.868;2023-04-07T06:25:23;96535.44;;;9.76;100.00
6829;BME280;17930;48.592;8.868;2023-04-07T06:27:49;96532.13;;;10.32;100.00
6829;BME280;17930;48.592;8.868;2023-04-07T06:30:16;96546.09;;;10.69;100.00
6829;BME280;17930;48.592;8.868;2023-04-07T06:32:44;96547.06;;;10.78;100.00
6829;BME280;17930;48.592;8.868;2023-04-07T06:35:11;96549.00;;;10.39;100.00
6829;BME280;17930;48.592;8.868;2023-04-07T06:37:37;96548.91;;;10.21;100.00
6829;BME280;17930;48.592;8.868;2023-04-07T06:40:06;96553.69;;;10.14;100.00
6829;BME280;17930;48.592;8.868;2023-04-07T06:42:33;96554.31;;;9.91;100.00
6829;BME280;17930;48.592;8.868;2023-04-07T06:44:59;96560.06;;;9.55;100.00
6829;BME280;17930;48.592;8.868;2023-04-07T06:47:26;96541.78;;;9.60;100.00
6829;BME280;17930;48.592;8.868;2023-04-07T06:49:54;96546.44;;;9.63;100.00
6829;BME280;17930;48.592;8.868;2023-04-07T06:52:21;96549.59;;;9.60;100.00
6829;BME280;17930;48.592;8.868;2023-04-07T06:54:48;96552.03;;;9.47;100.00
6829;BME280;17930;48.592;8.868;2023-04-07T06:57:14;96550.97;;;9.00;100.00
6829;BME280;17930;48.592;8.868;2023-04-07T06:59:41;96552.03;;;8.84;100.00
6829;BME280;17930;48.592;8.868;2023-04-07T07:02:08;96555.75;;;8.63;100.00
6829;BME280;17930;48.592;8.868;2023-04-07T07:04:34;96557.88;;;8.21;100.00
6829;BME280;17930;48.592;8.868;2023-04-07T07:07:02;96553.97;;;8.29;100.00
6829;BME280;17930;48.592;8.868;2023-04-07T07:09:29;96556.28;;;8.50;100.00
6829;BME280;17930;48.592;8.868;2023-04-07T07:11:56;96549.16;;;8.85;100.00
6829;BME280;17930;48.592;8.868;2023-04-07T07:14:23;96547.69;;;9.27;100.00
6829;BME280;17930;48.592;8.868;2023-04-07T07:16:49;96548.97;;;9.73;100.00
6829;BME280;17930;48.592;8.868;2023-04-07T07:19:16;96546.19;;;10.03;100.00
6829;BME280;17930;48.592;8.868;2023-04-07T07:21:42;96549.53;;;10.65;100.00
6829;BME280;17930;48.592;8.868;2023-04-07T07:24:10;96552.63;;;11.36;100.00
6829;BME280;17930;48.592;8.868;2023-04-07T07:26:37;96555.84;;;12.52;100.00
6829;BME280;17930;48.592;8.868;2023-04-07T07:29:05;96555.50;;;13.52;100.00
6829;BME280;17930;48.592;8.868;2023-04-07T07:31:32;96555.44;;;13.43;100.00
6829;BME280;17930;48.592;8.868;2023-04-07T07:33:59;96559.91;;;13.30;100.00
6829;BME280;17930;48.592;8.868;2023-04-07T07:36:26;96558.25;;;13.82;100.00
6829;BME280;17930;48.592;8.868;2023-04-07T07:38:52;96559.03;;;13.34;100.00
6829;BME280;17930;48.592;8.868;2023-04-07T07:41:20;96549.84;;;13.58;100.00
6829;BME280;17930;48.592;8.868;2023-04-07T07:43:47;96546.03;;;14.13;100.00
6829;BME280;17930;48.592;8.868;2023-04-07T07:46:13;96545.31;;;14.81;100.00
6829;BME280;17930;48.592;8.868;2023-04-07T07:48:40;96540.00;;;15.50;100.00
6829;BME280;17930;48.592;8.868;2023-04-07T07:51:06;96538.94;;;16.27;100.00
6829;BME280;17930;48.592;8.868;2023-04-07T07:53:33;96537.09;;;17.27;100.00
6829;BME280;17930;48.592;8.868;2023-04-07T07:56:00;96540.41;;;18.05;100.00
6829;BME280;17930;48.592;8.868;2023-04-07T07:58:28;96532.06;;;18.03;100.00
6829;BME280;17930;48.592;8.868;2023-04-07T08:00:54;96542.06;;;17.48;100.00
6829;BME280;17930;48.592;8.868;2023-04-07T08:03:21;96542.81;;;17.57;100.00
6829;BME280;17930;48.592;8.868;2023-04-07T08:05:48;96543.28;;;17.80;100.00
6829;BME280;17930;48.592;8.868;2023-04-07T08:08:14;96541.00;;;17.70;100.00
6829;BME280;17930;48.592;8.868;2023-04-07T08:10:41;96542.28;;;17.44;100.00
6829;BME280;17930;48.592;8.868;2023-04-07T08:13:08;96543.84;;;17.85;100.00
6829;BME280;17930;48.592;8.868;2023-04-07T08:15:36;96549.28;;;18.29;100.00
6829;BME280;17930;48.592;8.868;2023-04-07T08:18:02;96553.50;;;18.22;100.00
6829;BME280;17930;48.592;8.868;2023-04-07T08:20:31;96547.25;;;18.06;100.00
6829;BME280;17930;48.592;8.868;2023-04-07T08:22:58;96547.47;;;18.01;100.00
6829;BME280;17930;48.592;8.868;2023-04-07T08:25:25;96544.00;;;18.73;100.00
6829;BME280;17930;48.592;8.868;2023-04-07T08:27:51;96538.13;;;19.12;98.22
6829;BME280;17930;48.592;8.868;2023-04-07T08:30:18;96544.47;;;18.87;94.81
6829;BME280;17930;48.592;8.868;2023-04-07T08:32:46;96553.06;;;17.22;99.32
6829;BME280;17930;48.592;8.868;2023-04-07T08:35:13;96561.75;;;16.85;100.00
6829;BME280;17930;48.592;8.868;2023-04-07T08:37:40;96549.22;;;17.48;100.00
6829;BME280;17930;48.592;8.868;2023-04-07T08:40:09;96545.50;;;18.10;100.00
6829;BME280;17930;48.592;8.868;2023-04-07T08:42:39;96535.88;;;19.02;96.70
6829;BME280;17930;48.592;8.868;2023-04-07T08:45:07;96532.34;;;20.20;91.43
6829;BME280;17930;48.592;8.868;2023-04-07T08:47:35;96534.44;;;20.69;84.37
6829;BME280;17930;48.592;8.868;2023-04-07T08:50:06;96533.69;;;19.52;85.09
6829;BME280;17930;48.592;8.868;2023-04-07T08:52:34;96529.41;;;19.98;85.61
6829;BME280;17930;48.592;8.868;2023-04-07T08:55:07;96533.63;;;20.26;82.23
6829;BME280;17930;48.592;8.868;2023-04-07T08:57:33;96535.50;;;19.87;80.10
6829;BME280;17930;48.592;8.868;2023-04-07T09:00:01;96544.66;;;18.94;85.96
6829;BME280;17930;48.592;8.868;2023-04-07T09:02:32;96543.88;;;19.14;88.39
6829;BME280;17930;48.592;8.868;2023-04-07T09:04:59;96536.13;;;19.33;83.57
6829;BME280;17930;48.592;8.868;2023-04-07T09:07:27;96536.66;;;20.13;87.44
6829;BME280;17930;48.592;8.868;2023-04-07T09:09:54;96543.94;;;20.16;79.66
6829;BME280;17930;48.592;8.868;2023-04-07T09:12:30;96539.91;;;20.92;78.14
6829;BME280;17930;48.592;8.868;2023-04-07T09:14:57;96532.75;;;21.08;73.45
6829;BME280;17930;48.592;8.868;2023-04-07T09:17:24;96538.25;;;20.02;72.35
6829;BME280;17930;48.592;8.868;2023-04-07T09:19:51;96544.53;;;20.95;75.42
6829;BME280;17930;48.592;8.868;2023-04-07T09:22:33;96533.50;;;21.23;74.70
6829;BME280;17930;48.592;8.868;2023-04-07T09:25:08;96537.72;;;20.94;73.13
6829;BME280;17930;48.592;8.868;2023-04-07T09:27:35;96540.53;;;19.29;76.20
6829;BME280;17930;48.592;8.868;2023-04-07T09:30:10;96542.06;;;17.77;77.88
6829;BME280;17930;48.592;8.868;2023-04-07T09:32:39;96541.94;;;17.94;80.91
6829;BME280;17930;48.592;8.868;2023-04-07T09:35:07;96545.22;;;17.42;83.42
6829;BME280;17930;48.592;8.868;2023-04-07T09:37:36;96559.31;;;16.63;86.01
6829;BME280;17930;48.592;8.868;2023-04-07T09:40:03;96554.97;;;16.67;91.70
6829;BME280;17930;48.592;8.868;2023-04-07T09:42:31;96563.19;;;16.74;88.83
6829;BME280;17930;48.592;8.868;2023-04-07T09:45:00;96555.59;;;16.64;89.75
6829;BME280;17930;48.592;8.868;2023-04-07T09:47:27;96563.22;;;16.49;97.46
6829;BME280;17930;48.592;8.868;2023-04-07T09:49:54;96574.97;;;14.51;100.00
6829;BME280;17930;48.592;8.868;2023-04-07T09:52:25;96580.53;;;13.44;100.00
6829;BME280;17930;48.592;8.868;2023-04-07T09:55:00;96585.03;;;13.04;100.00
6829;BME280;17930;48.592;8.868;2023-04-07T09:57:27;96590.00;;;12.74;100.00
6829;BME280;17930;48.592;8.868;2023-04-07T09:59:55;96584.91;;;12.50;100.00
6829;BME280;17930;48.592;8.868;2023-04-07T10:02:22;96586.56;;;12.46;100.00
6829;BME280;17930;48.592;8.868;2023-04-07T10:04:51;96588.03;;;12.52;100.00
6829;BME280;17930;48.592;8.868;2023-04-07T10:07:18;96585.84;;;12.73;100.00
6829;BME280;17930;48.592;8.868;2023-04-07T10:09:45;96582.69;;;13.16;100.00
6829;BME280;17930;48.592;8.868;2023-04-07T10:12:14;96578.44;;;13.20;100.00
6829;BME280;17930;48.592;8.868;2023-04-07T10:14:41;96585.38;;;13.99;100.00
6829;BME280;17930;48.592;8.868;2023-04-07T10:17:12;96582.09;;;13.45;100.00
6829;BME280;17930;48.592;8.868;2023-04-07T10:19:44;96586.09;;;13.03;100.00
6829;BME280;17930;48.592;8.868;2023-04-07T10:22:11;96588.91;;;12.61;100.00
6829;BME280;17930;48.592;8.868;2023-04-07T10:24:45;96585.91;;;12.04;100.00
6829;BME280;17930;48.592;8.868;2023-04-07T10:27:19;96586.91;;;11.53;100.00
6829;BME280;17930;48.592;8.868;2023-04-07T10:29:49;96575.88;;;11.15;100.00
6829;BME280;17930;48.592;8.868;2023-04-07T10:32:17;96584.63;;;11.23;100.00
6829;BME280;17930;48.592;8.868;2023-04-07T10:35:01;96585.19;;;11.21;100.00
6829;BME280;17930;48.592;8.868;2023-04-07T10:37:35;96573.44;;;11.00;100.00
6829;BME280;17930;48.592;8.868;2023-04-07T10:40:28;96584.91;;;10.99;100.00
6829;BME280;17930;48.592;8.868;2023-04-07T10:42:56;96583.63;;;10.73;100.00
6829;BME280;17930;48.592;8.868;2023-04-07T10:45:51;96575.63;;;10.65;100.00
6829;BME280;17930;48.592;8.868;2023-04-07T10:48:19;96589.19;;;10.90;100.00
6829;BME280;17930;48.592;8.868;2023-04-07T10:51:14;96587.31;;;10.95;100.00
6829;BME280;17930;48.592;8.868;2023-04-07T10:57:07;96580.41;;;11.27;100.00
6829;BME280;17930;48.592;8.868;2023-04-07T10:59:37;96586.56;;;11.36;100.00
6829;BME280;17930;48.592;8.868;2023-04-07T11:02:29;96584.63;;;11.23;100.00
6829;BME280;17930;48.592;8.868;2023-04-07T11:04:57;96581.81;;;11.38;100.00
6829;BME280;17930;48.592;8.868;2023-04-07T11:07:45;96587.38;;;11.55;100.00
6829;BME280;17930;48.592;8.868;2023-04-07T11:10:13;96583.69;;;11.61;100.00
6829;BME280;17930;48.592;8.868;2023-04-07T11:12:41;96584.44;;;11.80;100.00
6829;BME280;17930;48.592;8.868;2023-04-07T11:15:19;96581.34;;;11.78;100.00
6829;BME280;17930;48.592;8.868;2023-04-07T11:18:05;96572.66;;;11.64;100.00
6829;BME280;17930;48.592;8.868;2023-04-07T11:20:40;96577.44;;;11.57;100.00
6829;BME280;17930;48.592;8.868;2023-04-07T11:23:07;96579.50;;;11.60;100.00
6829;BME280;17930;48.592;8.868;2023-04-07T11:25:34;96574.19;;;12.02;100.00
6829;BME280;17930;48.592;8.868;2023-04-07T11:28:02;96582.63;;;12.30;100.00
6829;BME280;17930;48.592;8.868;2023-04-07T11:30:31;96584.06;;;12.68;100.00
6829;BME280;17930;48.592;8.868;2023-04-07T11:32:58;96583.28;;;12.86;100.00
6829;BME280;17930;48.592;8.868;2023-04-07T11:35:25;96586.97;;;13.12;100.00
6829;BME280;17930;48.592;8.868;2023-04-07T11:37:56;96584.34;;;13.38;100.00
6829;BME280;17930;48.592;8.868;2023-04-07T11:40:31;96578.88;;;13.48;100.00
6829;BME280;17930;48.592;8.868;2023-04-07T11:42:58;96580.94;;;13.38;100.00
6829;BME280;17930;48.592;8.868;2023-04-07T11:45:25;96580.81;;;13.56;100.00
6829;BME280;17930;48.592;8.868;2023-04-07T11:47:53;96583.16;;;13.93;100.00
6829;BME280;17930;48.592;8.868;2023-04-07T11:50:38;96581.22;;;13.98;100.00
6829;BME280;17930;48.592;8.868;2023-04-07T11:53:05;96575.94;;;14.12;100.00
6829;BME280;17930;48.592;8.868;2023-04-07T11:55:32;96582.28;;;14.33;100.00
6829;BME280;17930;48.592;8.868;2023-04-07T11:58:04;96582.19;;;14.46;100.00
6829;BME280;17930;48.592;8.868;2023-04-07T12:00:31;96579.66;;;14.85;100.00
6829;BME280;17930;48.592;8.868;2023-04-07T12:03:09;96581.81;;;16.19;100.00
6829;BME280;17930;48.592;8.868;2023-04-07T12:05:42;96577.75;;;16.63;100.00
6829;BME280;17930;48.592;8.868;2023-04-07T12:08:09;96573.34;;;18.07;100.00
6829;BME280;17930;48.592;8.868;2023-04-07T12:10:36;96566.44;;;20.22;100.00
6829;BME280;17930;48.592;8.868;2023-04-07T12:13:05;96565.56;;;20.18;100.00
6829;BME280;17930;48.592;8.868;2023-04-07T12:15:33;96577.47;;;19.61;100.00
6829;BME280;17930;48.592;8.868;2023-04-07T12:17:59;96581.28;;;18.28;100.00
6829;BME280;17930;48.592;8.868;2023-04-07T12:20:28;96589.47;;;17.37;100.00
6829;BME280;17930;48.592;8.868;2023-04-07T12:22:55;96575.59;;;18.38;100.00
6829;BME280;17930;48.592;8.868;2023-04-07T12:25:23;96593.22;;;17.64;100.00
6829;BME280;17930;48.592;8.868;2023-04-07T12:27:50;96590.50;;;16.53;100.00
6829;BME280;17930;48.592;8.868;2023-04-07T12:30:17;96588.16;;;16.18;100.00
6829;BME280;17930;48.592;8.868;2023-04-07T12:32:44;96609.22;;;15.29;100.00
6829;BME280;17930;48.592;8.868;2023-04-07T12:35:11;96611.81;;;14.98;100.00
6829;BME280;17930;48.592;8.868;2023-04-07T12:37:39;96610.28;;;14.45;100.00
6829;BME280;17930;48.592;8.868;2023-04-07T12:40:09;96614.94;;;13.91;100.00
6829;BME280;17930;48.592;8.868;2023-04-07T12:42:36;96611.34;;;13.74;100.00
6829;BME280;17930;48.592;8.868;2023-04-07T12:45:03;96615.09;;;13.46;100.00
6829;BME280;17930;48.592;8.868;2023-04-07T12:47:30;96619.34;;;12.89;100.00
6829;BME280;17930;48.592;8.868;2023-04-07T12:49:56;96612.94;;;12.31;100.00
6829;BME280;17930;48.592;8.868;2023-04-07T12:52:23;96618.19;;;11.95;100.00
6829;BME280;17930;48.592;8.868;2023-04-07T12:54:51;96626.16;;;11.85;100.00
6829;BME280;17930;48.592;8.868;2023-04-07T12:57:18;96621.50;;;11.40;100.00
6829;BME280;17930;48.592;8.868;2023-04-07T12:59:45;96628.53;;;11.22;100.00
6829;BME280;17930;48.592;8.868;2023-04-07T13:02:11;96630.06;;;11.23;100.00
6829;BME280;17930;48.592;8.868;2023-04-07T13:04:39;96628.13;;;11.33;100.00
6829;BME280;17930;48.592;8.868;2023-04-07T13:07:08;96633.19;;;11.24;100.00
6829;BME280;17930;48.592;8.868;2023-04-07T13:09:34;96636.09;;;11.23;100.00
6829;BME280;17930;48.592;8.868;2023-04-07T13:12:02;96630.47;;;11.58;100.00
6829;BME280;17930;48.592;8.868;2023-04-07T13:14:29;96632.19;;;11.67;100.00
6829;BME280;17930;48.592;8.868;2023-04-07T13:16:55;96635.09;;;12.02;100.00
6829;BME280;17930;48.592;8.868;2023-04-07T13:19:22;96636.06;;;12.25;100.00